sensor_id;sensor_type;location;lat;lon;timestamp;pressure;altitude;pressure_sealevel;temperature;humidity
68366;BME280;55283;51.466;5.478;2022-10-16T00:00:42;100863.13;;;22.18;40.06
68366;BME280;55283;51.466;5.478;2022-10-16T00:03:08;100857.03;;;22.20;40.04
68366;BME280;55283;51.466;5.478;2022-10-16T00:05:39;100854.34;;;22.16;40.08
68366;BME280;55283;51.466;5.478;2022-10-16T00:08:05;100860.31;;;22.18;39.87
68366;BME280;55283;51.466;5.478;2022-10-16T00:10:31;100849.06;;;22.18;40.04
68366;BME280;55283;51.466;5.478;2022-10-16T00:12:56;100849.50;;;22.17;40.15
68366;BME280;55283;51.466;5.478;2022-10-16T00:15:21;100853.56;;;22.15;40.26
68366;BME280;55283;51.466;5.478;2022-10-16T00:17:47;100851.22;;;22.14;40.28
68366;BME280;55283;51.466;5.478;2022-10-16T00:20:12;100857.16;;;22.16;40.20
68366;BME280;55283;51.466;5.478;2022-10-16T00:22:37;100849.13;;;22.05;40.06
68366;BME280;55283;51.466;5.478;2022-10-16T00:25:03;100853.22;;;22.13;40.08
68366;BME280;55283;51.466;5.478;2022-10-16T00:27:29;100855.25;;;22.13;40.28
68366;BME280;55283;51.466;5.478;2022-10-16T00:29:54;100847.19;;;22.15;40.09
68366;BME280;55283;51.466;5.478;2022-10-16T00:32:20;100841.56;;;22.15;40.36
68366;BME280;55283;51.466;5.478;2022-10-16T00:34:45;100842.47;;;22.12;40.30
68366;BME280;55283;51.466;5.478;2022-10-16T00:37:12;100847.19;;;22.15;40.17
68366;BME280;55283;51.466;5.478;2022-10-16T00:39:37;100848.44;;;22.14;40.26
68366;BME280;55283;51.466;5.478;2022-10-16T00:42:03;100851.22;;;22.14;40.20
68366;BME280;55283;51.466;5.478;2022-10-16T00:44:48;100857.63;;;22.14;40.17
68366;BME280;55283;51.466;5.478;2022-10-16T00:47:39;100864.47;;;22.13;40.20
68366;BME280;55283;51.466;5.478;2022-10-16T00:50:09;100865.28;;;22.14;40.14
68366;BME280;55283;51.466;5.478;2022-10-16T00:52:39;100860.88;;;22.13;40.22
68366;BME280;55283;51.466;5.478;2022-10-16T00:55:08;100864.47;;;22.13;40.26
68366;BME280;55283;51.466;5.478;2022-10-16T00:57:34;100860.53;;;22.11;40.24
68366;BME280;55283;51.466;5.478;2022-10-16T00:59:59;100858.53;;;22.11;40.10
68366;BME280;55283;51.466;5.478;2022-10-16T01:02:25;100839.88;;;22.05;40.14
68366;BME280;55283;51.466;5.478;2022-10-16T01:04:52;100857.63;;;22.14;40.16
68366;BME280;55283;51.466;5.478;2022-10-16T01:13:06;100842.00;;;22.13;40.13
68366;BME280;55283;51.466;5.478;2022-10-16T01:15:37;100846.06;;;22.12;40.24
68366;BME280;55283;51.466;5.478;2022-10-16T01:18:21;100841.78;;;22.08;40.24
68366;BME280;55283;51.466;5.478;2022-10-16T01:20:56;100845.28;;;22.12;40.41
68366;BME280;55283;51.466;5.478;2022-10-16T01:28:27;100851.31;;;22.10;40.44
68366;BME280;55283;51.466;5.478;2022-10-16T01:30:58;100847.88;;;22.06;40.23
68366;BME280;55283;51.466;5.478;2022-10-16T01:33:34;100851.81;;;22.09;40.37
68366;BME280;55283;51.466;5.478;2022-10-16T01:36:12;100859.31;;;22.12;40.22
68366;BME280;55283;51.466;5.478;2022-10-16T01:38:39;100861.66;;;22.13;40.23
68366;BME280;55283;51.466;5.478;2022-10-16T01:41:16;100858.63;;;22.08;40.32
68366;BME280;55283;51.466;5.478;2022-10-16T01:43:55;100870.19;;;22.10;40.22
68366;BME280;55283;51.466;5.478;2022-10-16T01:46:22;100864.59;;;22.10;40.44
68366;BME280;55283;51.466;5.478;2022-10-16T01:48:49;100843.94;;;22.04;40.16
68366;BME280;55283;51.466;5.478;2022-10-16T01:51:17;100857.72;;;22.11;40.49
68366;BME280;55283;51.466;5.478;2022-10-16T01:53:48;100852.44;;;22.13;40.31
68366;BME280;55283;51.466;5.478;2022-10-16T01:56:17;100858.63;;;22.08;40.20
68366;BME280;55283;51.466;5.478;2022-10-16T01:58:51;100867.72;;;22.12;40.12
68366;BME280;55283;51.466;5.478;2022-10-16T02:01:20;100868.63;;;22.09;40.12
68366;BME280;55283;51.466;5.478;2022-10-16T02:03:50;100874.91;;;22.13;40.13
68366;BME280;55283;51.466;5.478;2022-10-16T02:06:17;100858.75;;;22.04;40.19
68366;BME280;55283;51.466;5.478;2022-10-16T02:08:43;100859.75;;;22.10;40.25
68366;BME280;55283;51.466;5.478;2022-10-16T02:11:09;100859.75;;;22.10;40.13
68366;BME280;55283;51.466;5.478;2022-10-16T02:13:48;100863.34;;;22.11;40.19
68366;BME280;55283;51.466;5.478;2022-10-16T02:16:15;100858.53;;;22.11;40.36
68366;BME280;55283;51.466;5.478;2022-10-16T02:18:42;100859.75;;;22.10;40.28
68366;BME280;55283;51.466;5.478;2022-10-16T02:21:24;100862.56;;;22.10;40.30
68366;BME280;55283;51.466;5.478;2022-10-16T02:24:44;100855.72;;;22.11;40.16
68366;BME280;55283;51.466;5.478;2022-10-16T02:27:06;100861.78;;;22.10;40.21
68366;BME280;55283;51.466;5.478;2022-10-16T02:29:37;100854.59;;;22.09;40.38
68366;BME280;55283;51.466;5.478;2022-10-16T02:32:06;100861.44;;;22.08;40.21
68366;BME280;55283;51.466;5.478;2022-10-16T02:34:33;100862.25;;;22.08;40.16
68366;BME280;55283;51.466;5.478;2022-10-16T02:37:02;100865.06;;;22.08;40.22
68366;BME280;55283;51.466;5.478;2022-10-16T02:39:29;100865.16;;;22.05;40.32
68366;BME280;55283;51.466;5.478;2022-10-16T02:41:55;100861.56;;;22.04;40.13
68366;BME280;55283;51.466;5.478;2022-10-16T02:44:20;100871.44;;;22.09;40.31
68366;BME280;55283;51.466;5.478;2022-10-16T02:46:46;100875.03;;;22.09;40.34
68366;BME280;55283;51.466;5.478;2022-10-16T02:49:11;100865.84;;;22.09;40.23
68366;BME280;55283;51.466;5.478;2022-10-16T02:51:37;100855.81;;;22.08;40.08
68366;BME280;55283;51.466;5.478;2022-10-16T02:54:02;100857.53;;;22.05;40.19
68366;BME280;55283;51.466;5.478;2022-10-16T02:56:28;100855.38;;;22.09;40.18
68366;BME280;55283;51.466;5.478;2022-10-16T02:58:54;100861.00;;;22.09;40.37
68366;BME280;55283;51.466;5.478;2022-10-16T03:01:20;100856.63;;;22.08;40.16
68366;BME280;55283;51.466;5.478;2022-10-16T03:03:45;100847.66;;;22.01;40.18
68366;BME280;55283;51.466;5.478;2022-10-16T03:06:10;100878.97;;;22.12;40.27
68366;BME280;55283;51.466;5.478;2022-10-16T03:08:36;100873.00;;;22.10;40.28
68366;BME280;55283;51.466;5.478;2022-10-16T03:11:01;100873.00;;;22.10;40.00
68366;BME280;55283;51.466;5.478;2022-10-16T03:13:27;100880.66;;;22.09;40.16
68366;BME280;55283;51.466;5.478;2022-10-16T03:15:52;100857.31;;;22.00;40.28
68366;BME280;55283;51.466;5.478;2022-10-16T03:18:17;100874.25;;;22.09;40.19
68366;BME280;55283;51.466;5.478;2022-10-16T03:20:43;100883.91;;;22.08;40.25
68366;BME280;55283;51.466;5.478;2022-10-16T03:23:09;100871.34;;;22.00;40.16
68366;BME280;55283;51.466;5.478;2022-10-16T03:25:34;100885.13;;;22.07;40.34
68366;BME280;55283;51.466;5.478;2022-10-16T03:27:59;100883.13;;;22.07;40.18
68366;BME280;55283;51.466;5.478;2022-10-16T03:30:25;100890.31;;;22.08;40.16
68366;BME280;55283;51.466;5.478;2022-10-16T03:32:50;100891.09;;;22.09;40.17
68366;BME280;55283;51.466;5.478;2022-10-16T03:35:22;100897.94;;;22.08;40.30
68366;BME280;55283;51.466;5.478;2022-10-16T03:37:47;100889.50;;;22.08;40.34
68366;BME280;55283;51.466;5.478;2022-10-16T03:40:13;100887.50;;;22.08;40.30
68366;BME280;55283;51.466;5.478;2022-10-16T03:42:38;100886.69;;;22.08;40.12
68366;BME280;55283;51.466;5.478;2022-10-16T03:45:05;100895.59;;;22.06;40.21
68366;BME280;55283;51.466;5.478;2022-10-16T03:47:30;100907.25;;;22.05;40.26
68366;BME280;55283;51.466;5.478;2022-10-16T03:49:58;100910.06;;;22.05;40.39
68366;BME280;55283;51.466;5.478;2022-10-16T03:52:23;100908.06;;;22.05;40.34
68366;BME280;55283;51.466;5.478;2022-10-16T03:54:49;100900.97;;;22.01;40.18
68366;BME280;55283;51.466;5.478;2022-10-16T03:57:14;100922.88;;;22.06;40.17
68366;BME280;55283;51.466;5.478;2022-10-16T03:59:40;100893.13;;;21.96;40.26
68366;BME280;55283;51.466;5.478;2022-10-16T04:02:05;100910.41;;;22.07;40.14
68366;BME280;55283;51.466;5.478;2022-10-16T04:04:30;100899.44;;;22.00;40.25
68366;BME280;55283;51.466;5.478;2022-10-16T04:06:56;100909.16;;;22.08;40.27
68366;BME280;55283;51.466;5.478;2022-10-16T04:09:21;100908.38;;;22.07;40.29
68366;BME280;55283;51.466;5.478;2022-10-16T04:11:47;100902.88;;;22.04;40.20
68366;BME280;55283;51.466;5.478;2022-10-16T04:14:12;100906.72;;;21.97;40.06
68366;BME280;55283;51.466;5.478;2022-10-16T04:16:37;100910.19;;;22.01;40.22
68366;BME280;55283;51.466;5.478;2022-10-16T04:19:03;100914.69;;;21.99;40.14
68366;BME280;55283;51.466;5.478;2022-10-16T04:21:28;100928.81;;;22.08;40.29
68366;BME280;55283;51.466;5.478;2022-10-16T04:23:54;100921.63;;;22.07;40.19
68366;BME280;55283;51.466;5.478;2022-10-16T04:26:20;100928.81;;;22.08;40.26
68366;BME280;55283;51.466;5.478;2022-10-16T04:28:45;100928.03;;;22.07;40.23
68366;BME280;55283;51.466;5.478;2022-10-16T04:31:11;100923.19;;;22.08;40.26
68366;BME280;55283;51.466;5.478;2022-10-16T04:33:36;100911.31;;;22.04;40.26
68366;BME280;55283;51.466;5.478;2022-10-16T04:36:02;100930.41;;;22.09;40.19
68366;BME280;55283;51.466;5.478;2022-10-16T04:38:28;100926.91;;;22.05;40.14
68366;BME280;55283;51.466;5.478;2022-10-16T04:40:54;100928.81;;;22.08;40.05
68366;BME280;55283;51.466;5.478;2022-10-16T04:43:20;100930.06;;;22.07;40.19
68366;BME280;55283;51.466;5.478;2022-10-16T04:45:45;100928.81;;;22.08;40.12
68366;BME280;55283;51.466;5.478;2022-10-16T04:48:11;100941.28;;;22.07;40.18
68366;BME280;55283;51.466;5.478;2022-10-16T04:50:36;100946.56;;;22.05;40.14
68366;BME280;55283;51.466;5.478;2022-10-16T04:53:02;100947.69;;;22.07;40.34
68366;BME280;55283;51.466;5.478;2022-10-16T04:55:27;100946.56;;;22.05;40.15
68366;BME280;55283;51.466;5.478;2022-10-16T04:57:52;100954.19;;;22.04;40.21
68366;BME280;55283;51.466;5.478;2022-10-16T05:00:18;100949.03;;;22.03;40.16
68366;BME280;55283;51.466;5.478;2022-10-16T05:02:43;100930.97;;;21.91;40.25
68366;BME280;55283;51.466;5.478;2022-10-16T05:05:10;100941.19;;;21.98;40.28
68366;BME280;55283;51.466;5.478;2022-10-16T05:07:37;100958.25;;;22.03;40.25
68366;BME280;55283;51.466;5.478;2022-10-16T05:10:02;100954.31;;;22.01;40.23
68366;BME280;55283;51.466;5.478;2022-10-16T05:12:28;100971.38;;;22.06;40.18
68366;BME280;55283;51.466;5.478;2022-10-16T05:14:59;100980.25;;;22.05;40.24
68366;BME280;55283;51.466;5.478;2022-10-16T05:17:25;100984.28;;;22.04;40.14
68366;BME280;55283;51.466;5.478;2022-10-16T05:19:51;100980.25;;;22.05;40.17
68366;BME280;55283;51.466;5.478;2022-10-16T05:22:17;100987.88;;;22.04;40.11
68366;BME280;55283;51.466;5.478;2022-10-16T05:24:42;100984.41;;;22.00;40.22
68366;BME280;55283;51.466;5.478;2022-10-16T05:27:08;100978.09;;;21.96;40.44
68366;BME280;55283;51.466;5.478;2022-10-16T05:29:33;100977.31;;;21.96;40.15
68366;BME280;55283;51.466;5.478;2022-10-16T05:31:59;100989.13;;;22.03;40.31
68366;BME280;55283;51.466;5.478;2022-10-16T05:34:24;100981.13;;;22.02;40.38
68366;BME280;55283;51.466;5.478;2022-10-16T05:36:49;100989.13;;;22.03;40.14
68366;BME280;55283;51.466;5.478;2022-10-16T05:39:15;100994.63;;;22.07;40.08
68366;BME280;55283;51.466;5.478;2022-10-16T05:41:41;100991.47;;;21.92;40.53
68366;BME280;55283;51.466;5.478;2022-10-16T05:44:07;101001.13;;;22.04;40.58
68366;BME280;55283;51.466;5.478;2022-10-16T05:46:32;101004.94;;;22.10;40.30
68366;BME280;55283;51.466;5.478;2022-10-16T05:48:58;101012.25;;;22.07;40.11
68366;BME280;55283;51.466;5.478;2022-10-16T05:51:24;101021.00;;;22.09;40.60
68366;BME280;55283;51.466;5.478;2022-10-16T05:53:50;101022.50;;;22.14;40.33
68366;BME280;55283;51.466;5.478;2022-10-16T05:56:16;101022.25;;;22.21;40.38
68366;BME280;55283;51.466;5.478;2022-10-16T05:58:42;101040.00;;;22.18;40.35
68366;BME280;55283;51.466;5.478;2022-10-16T06:01:14;101039.22;;;22.18;40.32
68366;BME280;55283;51.466;5.478;2022-10-16T06:03:40;101032.00;;;22.17;40.39
68366;BME280;55283;51.466;5.478;2022-10-16T06:06:17;101040.19;;;22.11;40.43
68366;BME280;55283;51.466;5.478;2022-10-16T06:08:44;101054.59;;;22.13;40.66
68366;BME280;55283;51.466;5.478;2022-10-16T06:11:21;101043.34;;;22.13;40.91
68366;BME280;55283;51.466;5.478;2022-10-16T06:13:51;101056.84;;;22.18;40.78
68366;BME280;55283;51.466;5.478;2022-10-16T06:16:17;101060.00;;;22.20;40.52
68366;BME280;55283;51.466;5.478;2022-10-16T06:18:42;101068.41;;;22.20;40.90
68366;BME280;55283;51.466;5.478;2022-10-16T06:21:14;101070.34;;;22.23;40.92
68366;BME280;55283;51.466;5.478;2022-10-16T06:23:41;101074.03;;;22.20;40.65
68366;BME280;55283;51.466;5.478;2022-10-16T06:26:12;101073.34;;;22.16;40.65
68366;BME280;55283;51.466;5.478;2022-10-16T06:28:38;101068.41;;;22.20;41.05
68366;BME280;55283;51.466;5.478;2022-10-16T06:31:05;101072.78;;;22.21;41.21
68366;BME280;55283;51.466;5.478;2022-10-16T06:33:31;101086.84;;;22.21;40.83
68366;BME280;55283;51.466;5.478;2022-10-16T06:36:05;101089.28;;;22.19;40.96
68366;BME280;55283;51.466;5.478;2022-10-16T06:38:31;101099.75;;;22.19;40.85
68366;BME280;55283;51.466;5.478;2022-10-16T06:40:57;101097.84;;;22.15;40.87
68366;BME280;55283;51.466;5.478;2022-10-16T06:43:23;101112.88;;;22.22;41.03
68366;BME280;55283;51.466;5.478;2022-10-16T06:48:18;101114.44;;;22.23;41.34
68366;BME280;55283;51.466;5.478;2022-10-16T06:50:43;101108.25;;;22.02;40.72
68366;BME280;55283;51.466;5.478;2022-10-16T06:53:09;101134.84;;;21.98;40.97
68366;BME280;55283;51.466;5.478;2022-10-16T06:55:34;101125.91;;;21.86;40.70
68366;BME280;55283;51.466;5.478;2022-10-16T06:57:59;101135.34;;;21.80;40.78
68366;BME280;55283;51.466;5.478;2022-10-16T07:00:25;101141.13;;;21.73;40.79
68366;BME280;55283;51.466;5.478;2022-10-16T07:02:50;101143.38;;;21.65;41.06
68366;BME280;55283;51.466;5.478;2022-10-16T07:05:16;101154.59;;;21.65;41.25
68366;BME280;55283;51.466;5.478;2022-10-16T07:07:41;101148.78;;;21.72;41.05
68366;BME280;55283;51.466;5.478;2022-10-16T07:10:07;101158.44;;;21.71;40.69
68366;BME280;55283;51.466;5.478;2022-10-16T07:12:33;101158.06;;;21.69;41.37
68366;BME280;55283;51.466;5.478;2022-10-16T07:14:58;101153.94;;;21.74;41.31
68366;BME280;55283;51.466;5.478;2022-10-16T07:17:23;101158.22;;;21.78;41.56
68366;BME280;55283;51.466;5.478;2022-10-16T07:19:49;101168.91;;;21.83;41.28
68366;BME280;55283;51.466;5.478;2022-10-16T07:22:14;101166.88;;;21.84;41.24
68366;BME280;55283;51.466;5.478;2022-10-16T07:24:40;101168.38;;;21.88;41.08
68366;BME280;55283;51.466;5.478;2022-10-16T07:27:05;101178.81;;;21.88;41.40
68366;BME280;55283;51.466;5.478;2022-10-16T07:29:30;101180.66;;;21.95;40.96
68366;BME280;55283;51.466;5.478;2022-10-16T07:31:56;101175.03;;;21.95;41.18
68366;BME280;55283;51.466;5.478;2022-10-16T07:34:21;101191.41;;;21.96;41.21
68366;BME280;55283;51.466;5.478;2022-10-16T07:36:49;101186.28;;;21.95;40.85
68366;BME280;55283;51.466;5.478;2022-10-16T07:39:14;101203.94;;;22.08;40.75
68366;BME280;55283;51.466;5.478;2022-10-16T07:41:40;101205.31;;;22.16;40.60
68366;BME280;55283;51.466;5.478;2022-10-16T07:44:05;101209.13;;;22.22;40.62
68366;BME280;55283;51.466;5.478;2022-10-16T07:46:31;101211.06;;;22.25;40.64
68366;BME280;55283;51.466;5.478;2022-10-16T07:48:58;101219.03;;;22.27;40.91
68366;BME280;55283;51.466;5.478;2022-10-16T07:51:25;101214.56;;;22.29;40.83
68366;BME280;55283;51.466;5.478;2022-10-16T07:53:50;101224.66;;;22.27;40.91
68366;BME280;55283;51.466;5.478;2022-10-16T07:56:17;101233.69;;;22.34;40.87
68366;BME280;55283;51.466;5.478;2022-10-16T07:58:43;101229.97;;;22.37;40.71
68366;BME280;55283;51.466;5.478;2022-10-16T08:01:11;101243.13;;;22.41;40.76
68366;BME280;55283;51.466;5.478;2022-10-16T08:03:38;101250.31;;;22.42;40.59
68366;BME280;55283;51.466;5.478;2022-10-16T08:06:04;101239.19;;;22.38;40.53
68366;BME280;55283;51.466;5.478;2022-10-16T08:08:30;101241.09;;;22.41;40.66
68366;BME280;55283;51.466;5.478;2022-10-16T08:10:55;101249.22;;;22.52;40.47
68366;BME280;55283;51.466;5.478;2022-10-16T08:13:21;101253.06;;;22.58;40.49
68366;BME280;55283;51.466;5.478;2022-10-16T08:15:46;101255.75;;;22.62;40.54
68366;BME280;55283;51.466;5.478;2022-10-16T08:18:13;101262.16;;;22.62;40.57
68366;BME280;55283;51.466;5.478;2022-10-16T08:20:39;101262.53;;;22.64;40.53
68366;BME280;55283;51.466;5.478;2022-10-16T08:23:05;101268.84;;;22.68;40.38
68366;BME280;55283;51.466;5.478;2022-10-16T08:25:34;101271.28;;;22.66;40.72
68366;BME280;55283;51.466;5.478;2022-10-16T08:27:59;101280.78;;;22.72;40.69
68366;BME280;55283;51.466;5.478;2022-10-16T08:30:25;101273.22;;;22.69;40.96
68366;BME280;55283;51.466;5.478;2022-10-16T08:32:50;101281.44;;;22.76;40.55
68366;BME280;55283;51.466;5.478;2022-10-16T08:35:16;101260.53;;;22.77;40.56
68366;BME280;55283;51.466;5.478;2022-10-16T08:37:42;101275.34;;;22.78;40.51
68366;BME280;55283;51.466;5.478;2022-10-16T08:40:33;101278.75;;;22.86;40.51
68366;BME280;55283;51.466;5.478;2022-10-16T08:46:48;101296.97;;;22.94;40.27
68366;BME280;55283;51.466;5.478;2022-10-16T08:48:55;101294.16;;;22.94;40.45
68366;BME280;55283;51.466;5.478;2022-10-16T08:51:26;101292.25;;;22.91;40.57
68366;BME280;55283;51.466;5.478;2022-10-16T08:54:02;101305.19;;;22.88;40.88
68366;BME280;55283;51.466;5.478;2022-10-16T08:56:28;101305.97;;;22.89;42.73
68366;BME280;55283;51.466;5.478;2022-10-16T08:58:54;101304.75;;;22.90;41.06
68366;BME280;55283;51.466;5.478;2022-10-16T09:01:21;101312.28;;;22.93;41.27
68366;BME280;55283;51.466;5.478;2022-10-16T09:04:22;101316.41;;;22.88;41.58
68366;BME280;55283;51.466;5.478;2022-10-16T09:07:04;101313.97;;;22.90;42.23
68366;BME280;55283;51.466;5.478;2022-10-16T09:12:22;101308.53;;;22.83;41.94
68366;BME280;55283;51.466;5.478;2022-10-16T09:15:24;101327.56;;;22.92;42.07
68366;BME280;55283;51.466;5.478;2022-10-16T09:18:16;101324.97;;;22.97;42.65
68366;BME280;55283;51.466;5.478;2022-10-16T09:21:09;101339.28;;;23.03;41.89
68366;BME280;55283;51.466;5.478;2022-10-16T09:23:38;101343.75;;;23.00;42.18
68366;BME280;55283;51.466;5.478;2022-10-16T09:26:04;101335.31;;;23.00;42.18
68366;BME280;55283;51.466;5.478;2022-10-16T09:28:30;101338.84;;;23.04;41.77
68366;BME280;55283;51.466;5.478;2022-10-16T09:30:56;101345.78;;;23.00;42.18
68366;BME280;55283;51.466;5.478;2022-10-16T09:33:25;101334.19;;;22.98;42.10
68366;BME280;55283;51.466;5.478;2022-10-16T09:35:55;101347.16;;;23.08;41.82
68366;BME280;55283;51.466;5.478;2022-10-16T09:40:47;101342.97;;;23.13;41.48
68366;BME280;55283;51.466;5.478;2022-10-16T09:43:47;101346.03;;;23.18;41.23
68366;BME280;55283;51.466;5.478;2022-10-16T09:48:54;101347.63;;;23.19;41.50
68366;BME280;55283;51.466;5.478;2022-10-16T09:51:26;101348.28;;;23.23;41.10
68366;BME280;55283;51.466;5.478;2022-10-16T09:54:20;101357.06;;;23.25;41.06
68366;BME280;55283;51.466;5.478;2022-10-16T09:56:46;101358.75;;;23.23;41.22
68366;BME280;55283;51.466;5.478;2022-10-16T09:59:18;101359.53;;;23.23;41.04
68366;BME280;55283;51.466;5.478;2022-10-16T10:01:47;101354.59;;;23.27;40.86
68366;BME280;55283;51.466;5.478;2022-10-16T10:04:13;101347.38;;;23.26;40.80
68366;BME280;55283;51.466;5.478;2022-10-16T10:06:50;101351.34;;;23.29;40.64
68366;BME280;55283;51.466;5.478;2022-10-16T10:11:50;101371.28;;;23.35;40.45
68366;BME280;55283;51.466;5.478;2022-10-16T10:17:10;101361.50;;;23.39;40.24
68366;BME280;55283;51.466;5.478;2022-10-16T10:22:23;101370.25;;;23.41;40.24
68366;BME280;55283;51.466;5.478;2022-10-16T10:30:24;101380.97;;;23.46;40.60
68366;BME280;55283;51.466;5.478;2022-10-16T10:36:02;101376.47;;;23.49;40.46
68366;BME280;55283;51.466;5.478;2022-10-16T10:44:06;101368.47;;;23.47;40.17
68366;BME280;55283;51.466;5.478;2022-10-16T10:46:42;101378.72;;;23.54;40.36
68366;BME280;55283;51.466;5.478;2022-10-16T10:52:13;101390.22;;;23.60;41.32
68366;BME280;55283;51.466;5.478;2022-10-16T10:55:16;101385.56;;;23.53;40.76
68366;BME280;55283;51.466;5.478;2022-10-16T11:00:49;101392.31;;;23.56;41.57
68366;BME280;55283;51.466;5.478;2022-10-16T11:06:05;101387.81;;;23.58;40.98
68366;BME280;55283;51.466;5.478;2022-10-16T11:08:48;101396.75;;;23.57;41.01
68366;BME280;55283;51.466;5.478;2022-10-16T11:11:30;101392.13;;;23.63;40.63
68366;BME280;55283;51.466;5.478;2022-10-16T11:16:39;101398.41;;;23.67;40.60
68366;BME280;55283;51.466;5.478;2022-10-16T11:19:14;101394.13;;;23.62;40.66
68366;BME280;55283;51.466;5.478;2022-10-16T11:22:01;101399.75;;;23.62;40.82
68366;BME280;55283;51.466;5.478;2022-10-16T11:24:39;101390.66;;;23.58;40.72
68366;BME280;55283;51.466;5.478;2022-10-16T11:27:09;101398.88;;;23.65;40.95
68366;BME280;55283;51.466;5.478;2022-10-16T11:29:44;101398.06;;;23.65;40.74
68366;BME280;55283;51.466;5.478;2022-10-16T11:32:25;101398.88;;;23.65;40.90
68366;BME280;55283;51.466;5.478;2022-10-16T11:34:58;101402.47;;;23.66;41.20
68366;BME280;55283;51.466;5.478;2022-10-16T11:37:28;101405.28;;;23.66;41.12
68366;BME280;55283;51.466;5.478;2022-10-16T11:40:03;101400.44;;;23.66;41.16
68366;BME280;55283;51.466;5.478;2022-10-16T11:42:43;101406.06;;;23.66;41.16
68366;BME280;55283;51.466;5.478;2022-10-16T11:45:35;101401.69;;;23.65;41.28
68366;BME280;55283;51.466;5.478;2022-10-16T11:48:32;101420.59;;;23.65;41.14
68366;BME280;55283;51.466;5.478;2022-10-16T11:56:40;101401.13;;;23.58;41.58
68366;BME280;55283;51.466;5.478;2022-10-16T11:59:14;101413.50;;;23.60;41.80
68366;BME280;55283;51.466;5.478;2022-10-16T12:01:47;101403.47;;;23.59;41.68
68366;BME280;55283;51.466;5.478;2022-10-16T12:04:34;101413.72;;;23.66;41.67
68366;BME280;55283;51.466;5.478;2022-10-16T12:07:14;101407.19;;;23.69;41.71
68366;BME280;55283;51.466;5.478;2022-10-16T12:09:42;101406.06;;;23.66;41.91
68366;BME280;55283;51.466;5.478;2022-10-16T12:12:45;101408.31;;;23.71;41.55
68366;BME280;55283;51.466;5.478;2022-10-16T12:17:44;101415.41;;;23.63;41.53
68366;BME280;55283;51.466;5.478;2022-10-16T12:22:55;101422.19;;;23.66;41.61
68366;BME280;55283;51.466;5.478;2022-10-16T12:25:33;101423.31;;;23.68;41.68
68366;BME280;55283;51.466;5.478;2022-10-16T12:28:02;101412.47;;;23.67;41.64
68366;BME280;55283;51.466;5.478;2022-10-16T12:30:31;101413.63;;;23.69;41.81
68366;BME280;55283;51.466;5.478;2022-10-16T12:35:33;101413.63;;;23.69;41.36
68366;BME280;55283;51.466;5.478;2022-10-16T12:38:07;101426.91;;;23.69;41.56
68366;BME280;55283;51.466;5.478;2022-10-16T12:40:35;101419.44;;;23.62;41.95
68366;BME280;55283;51.466;5.478;2022-10-16T12:48:36;101401.00;;;23.61;41.42
68366;BME280;55283;51.466;5.478;2022-10-16T12:54:14;101421.47;;;23.62;41.44
68366;BME280;55283;51.466;5.478;2022-10-16T12:59:53;101397.19;;;23.55;41.43
68366;BME280;55283;51.466;5.478;2022-10-16T13:02:47;101411.00;;;23.62;41.59
68366;BME280;55283;51.466;5.478;2022-10-16T13:16:20;101404.94;;;23.51;41.60
68366;BME280;55283;51.466;5.478;2022-10-16T13:21:30;101404.72;;;23.58;41.74
68366;BME280;55283;51.466;5.478;2022-10-16T13:24:19;101416.44;;;23.57;41.65
68366;BME280;55283;51.466;5.478;2022-10-16T13:29:43;101411.00;;;23.49;41.80
68366;BME280;55283;51.466;5.478;2022-10-16T13:32:10;101424.06;;;23.56;41.62
68366;BME280;55283;51.466;5.478;2022-10-16T13:34:48;101422.72;;;23.48;41.72
68366;BME280;55283;51.466;5.478;2022-10-16T13:37:23;101424.31;;;23.49;41.68
68366;BME280;55283;51.466;5.478;2022-10-16T13:39:48;101437.00;;;23.54;41.79
68366;BME280;55283;51.466;5.478;2022-10-16T13:42:22;101430.47;;;23.44;41.88
68366;BME280;55283;51.466;5.478;2022-10-16T13:44:53;101439.63;;;23.48;42.07
68366;BME280;55283;51.466;5.478;2022-10-16T13:47:24;101430.94;;;23.42;41.92
68366;BME280;55283;51.466;5.478;2022-10-16T13:50:25;101427.31;;;23.42;42.11
68366;BME280;55283;51.466;5.478;2022-10-16T13:52:51;101435.75;;;23.42;42.08
68366;BME280;55283;51.466;5.478;2022-10-16T13:55:17;101435.88;;;23.38;41.97
68366;BME280;55283;51.466;5.478;2022-10-16T13:57:43;101438.00;;;23.34;41.98
68366;BME280;55283;51.466;5.478;2022-10-16T14:02:51;101436.22;;;23.40;42.21
68366;BME280;55283;51.466;5.478;2022-10-16T14:05:17;101430.72;;;23.37;41.88
68366;BME280;55283;51.466;5.478;2022-10-16T14:07:42;101447.13;;;23.38;42.03
68366;BME280;55283;51.466;5.478;2022-10-16T14:10:29;101443.63;;;23.34;41.99
68366;BME280;55283;51.466;5.478;2022-10-16T14:13:01;101432.38;;;23.34;42.13
68366;BME280;55283;51.466;5.478;2022-10-16T14:15:29;101453.09;;;23.40;41.91
68366;BME280;55283;51.466;5.478;2022-10-16T14:17:55;101449.50;;;23.40;41.95
68366;BME280;55283;51.466;5.478;2022-10-16T14:20:26;101433.25;;;23.31;41.88
68366;BME280;55283;51.466;5.478;2022-10-16T14:23:00;101441.22;;;23.33;42.07
68366;BME280;55283;51.466;5.478;2022-10-16T14:25:29;101430.44;;;23.31;42.08
68366;BME280;55283;51.466;5.478;2022-10-16T14:28:05;101434.75;;;23.36;42.13
68366;BME280;55283;51.466;5.478;2022-10-16T14:30:53;101430.59;;;23.40;41.75
68366;BME280;55283;51.466;5.478;2022-10-16T14:33:22;101433.69;;;23.30;42.11
68366;BME280;55283;51.466;5.478;2022-10-16T14:36:05;101424.78;;;23.18;42.15
68366;BME280;55283;51.466;5.478;2022-10-16T14:38:32;101413.88;;;23.20;42.10
68366;BME280;55283;51.466;5.478;2022-10-16T14:40:59;101413.41;;;23.09;41.83
68366;BME280;55283;51.466;5.478;2022-10-16T14:43:52;101416.03;;;23.16;41.94
68366;BME280;55283;51.466;5.478;2022-10-16T14:46:20;101422.31;;;23.20;41.73